This is the latest recevied weather packets stored in our database for station/object HB9HJL-11. If no packets are shown the sender has not sent any weather packets the latest 10 day(s).
| Time | Temp. | Humidity | Pressure | Rain* | Wind** | Luminosity | Snow |
|---|---|---|---|---|---|---|---|
| 1777369641 | 19.44° C | 34% | 925 hPa | - | - | - | - |
| 1777368741 | 18.89° C | 35% | 924 hPa | - | - | - | - |
| 1777367841 | 18.33° C | 34% | 921 hPa | - | - | - | - |
| 1777366941 | 20° C | 35% | 926 hPa | - | - | - | - |
| 1777366041 | 18.89° C | 37% | 927 hPa | - | - | - | - |
| 1777365141 | 18.89° C | 37% | 927 hPa | - | - | - | - |
| 1777364241 | 18.33° C | 39% | 929 hPa | - | - | - | - |
| 1777363340 | 16.67° C | 42% | 931 hPa | - | - | - | - |
| 1777362440 | 16.11° C | 42% | 930 hPa | - | - | - | - |
| 1777361540 | 15.56° C | 45% | 932 hPa | - | - | - | - |
| 1777360640 | 15° C | 47% | 935 hPa | - | - | - | - |
| 1777359740 | 13.89° C | 50% | 937 hPa | - | - | - | - |
| 1777358840 | 13.33° C | 52% | 939 hPa | - | - | - | - |
| 1777357940 | 12.22° C | 55% | 940 hPa | - | - | - | - |
| 1777357040 | 10.56° C | 60% | 944 hPa | - | - | - | - |
| 1777356140 | 10° C | 64% | 948 hPa | - | - | - | - |
| 1777355240 | 8.89° C | 66% | 948 hPa | - | - | - | - |
| 1777354339 | 7.78° C | 68% | 949 hPa | - | - | - | - |
| 1777353439 | 7.22° C | 68% | 949 hPa | - | - | - | - |
| 1777352539 | 7.22° C | 67% | 948 hPa | - | - | - | - |
| 1777351639 | 7.22° C | 67% | 948 hPa | - | - | - | - |
| 1777350739 | 7.22° C | 67% | 948 hPa | - | - | - | - |
| 1777349839 | 7.22° C | 65% | 947 hPa | - | - | - | - |
| 1777348938 | 7.22° C | 66% | 947 hPa | - | - | - | - |
| 1777348038 | 7.22° C | 65% | 948 hPa | - | - | - | - |
* Rain since midnight (hover to see other rain measurements)
** Current wind speed in m/s (hover to see current wind gust speed)